Time,TemperatureF,DewpointF,PressureIn,WindDirection,WindDirectionDegrees,WindSpeedMPH,WindSpeedGustMPH,Humidity,HourlyPrecipIn,Conditions,Clouds,dailyrainin,SoftwareType,DateUTC
2013-07-18 00:01:00,53.0,47.0,-100.00,North,4,0.0,2.0,79,0.00,,,0.00,,2013-07-18 06:01:00,
2013-07-18 00:12:00,53.0,47.0,-100.00,North,4,0.0,2.0,79,0.00,,,0.00,,2013-07-18 06:12:00,
2013-07-18 00:22:00,53.0,47.0,-100.00,North,4,0.0,2.0,79,0.00,,,0.00,,2013-07-18 06:22:00,
2013-07-18 00:32:00,53.0,47.0,-100.00,North,4,0.0,2.0,79,0.00,,,0.00,,2013-07-18 06:32:00,
2013-07-18 00:40:00,52.0,48.0,-100.00,NNE,20,0.0,0.0,87,0.00,,,0.00,,2013-07-18 06:40:00,
2013-07-18 01:01:00,52.0,48.0,-100.00,NNE,20,0.0,0.0,87,0.00,,,0.00,,2013-07-18 07:01:00,
2013-07-18 01:12:00,52.0,48.0,-100.00,NNE,20,0.0,0.0,87,0.00,,,0.00,,2013-07-18 07:12:00,
2013-07-18 01:22:00,52.0,48.0,-100.00,NNE,20,0.0,0.0,87,0.00,,,0.00,,2013-07-18 07:22:00,
2013-07-18 01:32:00,52.0,48.0,-100.00,NNE,20,0.0,0.0,87,0.00,,,0.00,,2013-07-18 07:32:00,
2013-07-18 03:40:00,50.0,46.0,-100.00,NE,37,1.0,3.0,87,-99.99,,,0.00,,2013-07-18 09:40:00,
2013-07-18 04:01:00,50.0,46.0,-100.00,NE,37,1.0,3.0,87,-99.99,,,0.00,,2013-07-18 10:01:00,
2013-07-18 04:11:00,50.0,46.0,-100.00,NE,37,1.0,3.0,87,-99.99,,,0.00,,2013-07-18 10:11:00,
2013-07-18 04:21:00,50.0,46.0,-100.00,NE,37,1.0,3.0,87,-99.99,,,0.00,,2013-07-18 10:21:00,
2013-07-18 04:32:00,50.0,46.0,-100.00,NE,37,1.0,3.0,87,-99.99,,,0.00,,2013-07-18 10:32:00,
2013-07-18 04:40:00,49.0,46.0,-100.00,NNE,17,1.0,2.0,89,0.00,,,0.00,,2013-07-18 10:40:00,
2013-07-18 05:01:00,49.0,46.0,-100.00,NNE,17,1.0,2.0,89,0.00,,,0.00,,2013-07-18 11:01:00,
2013-07-18 05:11:00,49.0,46.0,-100.00,NNE,17,1.0,2.0,89,0.00,,,0.00,,2013-07-18 11:11:00,
2013-07-18 05:22:00,49.0,46.0,-100.00,NNE,17,1.0,2.0,89,0.00,,,0.00,,2013-07-18 11:22:00,
2013-07-18 05:32:00,49.0,46.0,-100.00,NNE,17,1.0,2.0,89,0.00,,,0.00,,2013-07-18 11:32:00,
2013-07-18 05:40:00,49.0,46.0,-100.00,NNE,18,0.0,3.0,88,0.00,,,0.00,,2013-07-18 11:40:00,
2013-07-18 06:11:00,49.0,46.0,-100.00,NNE,18,0.0,3.0,88,0.00,,,0.00,,2013-07-18 12:11:00,
2013-07-18 06:22:00,49.0,46.0,-100.00,NNE,18,0.0,3.0,88,0.00,,,0.00,,2013-07-18 12:22:00,
2013-07-18 06:32:00,49.0,46.0,-100.00,NNE,18,0.0,3.0,88,0.00,,,0.00,,2013-07-18 12:32:00,
2013-07-18 06:40:00,49.0,46.0,-100.00,North,9,0.0,4.0,89,0.00,,,0.00,,2013-07-18 12:40:00,
2013-07-18 07:11:00,49.0,46.0,-100.00,North,9,0.0,4.0,89,0.00,,,0.00,,2013-07-18 13:11:00,
2013-07-18 07:22:00,49.0,46.0,-100.00,North,9,0.0,4.0,89,0.00,,,0.00,,2013-07-18 13:22:00,
2013-07-18 07:32:00,49.0,46.0,-100.00,North,9,0.0,4.0,89,0.00,,,0.00,,2013-07-18 13:32:00,
2013-07-18 07:40:00,56.0,47.0,-100.00,WNW,300,0.0,3.0,72,0.00,,,0.00,,2013-07-18 13:40:00,
2013-07-18 08:11:00,56.0,47.0,-100.00,WNW,300,0.0,3.0,72,0.00,,,0.00,,2013-07-18 14:11:00,
2013-07-18 08:22:00,56.0,47.0,-100.00,WNW,300,0.0,3.0,72,0.00,,,0.00,,2013-07-18 14:22:00,
2013-07-18 08:33:00,56.0,47.0,-100.00,WNW,300,0.0,3.0,72,0.00,,,0.00,,2013-07-18 14:33:00,
2013-07-18 08:40:00,62.0,49.0,-100.00,SW,234,1.0,4.0,62,0.00,,,0.00,,2013-07-18 14:40:00,
2013-07-18 09:01:00,62.0,49.0,-100.00,SW,234,1.0,4.0,62,0.00,,,0.00,,2013-07-18 15:01:00,
2013-07-18 09:11:00,62.0,49.0,-100.00,SW,234,1.0,4.0,62,0.00,,,0.00,,2013-07-18 15:11:00,
2013-07-18 09:22:00,62.0,49.0,-100.00,SW,234,1.0,4.0,62,0.00,,,0.00,,2013-07-18 15:22:00,
2013-07-18 09:32:00,62.0,49.0,-100.00,SW,234,1.0,4.0,62,0.00,,,0.00,,2013-07-18 15:32:00,
2013-07-18 09:40:00,67.0,50.0,-100.00,ESE,108,3.0,6.0,55,0.00,,,0.00,,2013-07-18 15:40:00,
2013-07-18 10:11:00,67.0,50.0,-100.00,ESE,108,3.0,6.0,55,0.00,,,0.00,,2013-07-18 16:11:00,
2013-07-18 10:22:00,67.0,50.0,-100.00,ESE,108,3.0,6.0,55,0.00,,,0.00,,2013-07-18 16:22:00,
2013-07-18 10:32:00,67.0,50.0,-100.00,ESE,108,3.0,6.0,55,0.00,,,0.00,,2013-07-18 16:32:00,
2013-07-18 10:40:00,70.0,50.0,-100.00,SSE,152,3.0,7.0,50,0.00,,,-99.99,,2013-07-18 16:40:00,
2013-07-18 11:11:00,70.0,50.0,-100.00,SSE,152,3.0,7.0,50,0.00,,,-99.99,,2013-07-18 17:11:00,
2013-07-18 11:22:00,70.0,50.0,-100.00,SSE,152,3.0,7.0,50,0.00,,,-99.99,,2013-07-18 17:22:00,
2013-07-18 11:33:00,70.0,50.0,-100.00,SSE,152,3.0,7.0,50,0.00,,,-99.99,,2013-07-18 17:33:00,
2013-07-18 12:40:00,77.0,49.0,-100.00,NNE,18,4.0,8.0,38,-99.99,,,0.00,,2013-07-18 18:40:00,
2013-07-18 13:11:00,77.0,49.0,-100.00,NNE,18,4.0,8.0,38,-99.99,,,0.00,,2013-07-18 19:11:00,
2013-07-18 13:22:00,77.0,49.0,-100.00,NNE,18,4.0,8.0,38,-99.99,,,0.00,,2013-07-18 19:22:00,
2013-07-18 13:32:00,77.0,49.0,-100.00,NNE,18,4.0,8.0,38,-99.99,,,0.00,,2013-07-18 19:32:00,
2013-07-18 13:40:00,78.0,49.0,-100.00,NE,47,3.0,9.0,36,0.00,,,0.00,,2013-07-18 19:40:00,
2013-07-18 14:11:00,78.0,49.0,-100.00,NE,47,3.0,9.0,36,0.00,,,0.00,,2013-07-18 20:11:00,
2013-07-18 14:22:00,78.0,49.0,-100.00,NE,47,3.0,9.0,36,0.00,,,0.00,,2013-07-18 20:22:00,
2013-07-18 14:32:00,78.0,49.0,-100.00,NE,47,3.0,9.0,36,0.00,,,0.00,,2013-07-18 20:32:00,
2013-07-18 14:40:00,78.0,47.0,-100.00,ENE,58,4.0,9.0,34,0.00,,,0.00,,2013-07-18 20:40:00,
2013-07-18 15:01:00,78.0,47.0,-100.00,ENE,58,4.0,9.0,34,0.00,,,0.00,,2013-07-18 21:01:00,
2013-07-18 15:11:00,78.0,47.0,-100.00,ENE,58,4.0,9.0,34,0.00,,,0.00,,2013-07-18 21:11:00,
2013-07-18 15:22:00,78.0,47.0,-100.00,ENE,58,4.0,9.0,34,0.00,,,0.00,,2013-07-18 21:22:00,
2013-07-18 15:32:00,78.0,47.0,-100.00,ENE,58,4.0,9.0,34,0.00,,,0.00,,2013-07-18 21:32:00,
2013-07-18 15:40:00,81.0,47.0,-100.00,NE,40,3.0,9.0,31,0.00,,,0.00,,2013-07-18 21:40:00,
2013-07-18 16:11:00,81.0,47.0,-100.00,NE,40,3.0,9.0,31,0.00,,,0.00,,2013-07-18 22:11:00,
2013-07-18 16:22:00,81.0,47.0,-100.00,NE,40,3.0,9.0,31,0.00,,,0.00,,2013-07-18 22:22:00,
2013-07-18 16:32:00,81.0,47.0,-100.00,NE,40,3.0,9.0,31,0.00,,,0.00,,2013-07-18 22:32:00,
2013-07-18 16:40:00,83.0,48.0,-100.00,NNE,26,4.0,9.0,30,0.00,,,0.00,,2013-07-18 22:40:00,
2013-07-18 17:11:00,83.0,48.0,-100.00,NNE,26,4.0,9.0,30,0.00,,,0.00,,2013-07-18 23:11:00,
2013-07-18 17:22:00,83.0,48.0,-100.00,NNE,26,4.0,9.0,30,0.00,,,0.00,,2013-07-18 23:22:00,
2013-07-18 17:32:00,83.0,48.0,-100.00,NNE,26,4.0,9.0,30,0.00,,,0.00,,2013-07-18 23:32:00,
2013-07-18 17:40:00,80.0,47.0,-100.00,NNE,15,4.0,11.0,32,0.00,,,0.00,,2013-07-18 23:40:00,
2013-07-18 18:01:00,80.0,47.0,-100.00,NNE,15,4.0,11.0,32,0.00,,,0.00,,2013-07-19 00:01:00,
2013-07-18 18:11:00,80.0,47.0,-100.00,NNE,15,4.0,11.0,32,0.00,,,0.00,,2013-07-19 00:11:00,
2013-07-18 18:22:00,80.0,47.0,-100.00,NNE,15,4.0,11.0,32,0.00,,,0.00,,2013-07-19 00:22:00,
2013-07-18 18:32:00,80.0,47.0,-100.00,NNE,15,4.0,11.0,32,0.00,,,0.00,,2013-07-19 00:32:00,
2013-07-18 18:40:00,79.0,47.0,-100.00,NNE,18,4.0,8.0,33,0.00,,,0.00,,2013-07-19 00:40:00,
2013-07-18 19:11:00,79.0,47.0,-100.00,NNE,18,4.0,8.0,33,0.00,,,0.00,,2013-07-19 01:11:00,
2013-07-18 19:22:00,79.0,47.0,-100.00,NNE,18,4.0,8.0,33,0.00,,,0.00,,2013-07-19 01:22:00,
2013-07-18 19:32:00,79.0,47.0,-100.00,NNE,18,4.0,8.0,33,0.00,,,0.00,,2013-07-19 01:32:00,
2013-07-18 19:40:00,73.0,48.0,-100.00,NNE,13,2.0,7.0,41,0.00,,,0.00,,2013-07-19 01:40:00,
2013-07-18 20:01:00,73.0,48.0,-100.00,NNE,13,2.0,7.0,41,0.00,,,0.00,,2013-07-19 02:01:00,
2013-07-18 20:11:00,73.0,48.0,-100.00,NNE,13,2.0,7.0,41,0.00,,,0.00,,2013-07-19 02:11:00,
2013-07-18 20:22:00,73.0,48.0,-100.00,NNE,13,2.0,7.0,41,0.00,,,0.00,,2013-07-19 02:22:00,
2013-07-18 20:32:00,73.0,48.0,-100.00,NNE,13,2.0,7.0,41,0.00,,,0.00,,2013-07-19 02:32:00,
2013-07-18 20:40:00,69.0,48.0,-100.00,NNE,12,2.0,6.0,48,0.00,,,0.00,,2013-07-19 02:40:00,
2013-07-18 21:01:00,69.0,48.0,-100.00,NNE,12,2.0,6.0,48,0.00,,,0.00,,2013-07-19 03:01:00,
2013-07-18 21:11:00,69.0,48.0,-100.00,NNE,12,2.0,6.0,48,0.00,,,0.00,,2013-07-19 03:11:00,
2013-07-18 21:22:00,69.0,48.0,-100.00,NNE,12,2.0,6.0,48,0.00,,,0.00,,2013-07-19 03:22:00,
2013-07-18 21:32:00,69.0,48.0,-100.00,NNE,12,2.0,6.0,48,0.00,,,0.00,,2013-07-19 03:32:00,
2013-07-18 21:40:00,67.0,49.0,-100.00,North,5,2.0,5.0,52,0.00,,,0.00,,2013-07-19 03:40:00,
2013-07-18 22:02:00,67.0,49.0,-100.00,North,5,2.0,5.0,52,0.00,,,0.00,,2013-07-19 04:02:00,
2013-07-18 22:12:00,67.0,49.0,-100.00,North,5,2.0,5.0,52,0.00,,,0.00,,2013-07-19 04:12:00,
2013-07-18 22:22:00,67.0,49.0,-100.00,North,5,2.0,5.0,52,0.00,,,0.00,,2013-07-19 04:22:00,
2013-07-18 22:33:00,67.0,49.0,-100.00,North,5,2.0,5.0,52,0.00,,,0.00,,2013-07-19 04:33:00,
2013-07-18 22:40:00,66.0,50.0,-100.00,North,4,2.0,5.0,57,0.00,,,0.00,,2013-07-19 04:40:00,
2013-07-18 23:11:00,66.0,50.0,-100.00,North,4,2.0,5.0,57,0.00,,,0.00,,2013-07-19 05:11:00,
2013-07-18 23:22:00,66.0,50.0,-100.00,North,4,2.0,5.0,57,0.00,,,0.00,,2013-07-19 05:22:00,
2013-07-18 23:32:00,66.0,50.0,-100.00,North,4,2.0,5.0,57,0.00,,,0.00,,2013-07-19 05:32:00,
2013-07-18 23:40:00,65.0,52.0,-100.00,North,352,3.0,5.0,62,0.00,,,0.00,,2013-07-19 05:40:00,